createdAt,value
2022-12-04T00:00:27.439Z,100286.66
2022-12-04T00:02:54.319Z,100283.22
2022-12-04T00:05:21.143Z,100264.63
2022-12-04T00:07:47.888Z,100257.78
2022-12-04T00:10:14.712Z,100256.88
2022-12-04T00:12:41.430Z,100253.56
2022-12-04T00:15:25.893Z,100257.81
2022-12-04T00:17:53.952Z,100249.38
2022-12-04T00:20:20.673Z,100266.34
2022-12-04T00:22:47.444Z,100252.66
2022-12-04T00:25:14.157Z,100256.97
2022-12-04T00:27:41.043Z,100241.69
2022-12-04T00:30:08.602Z,100253.63
2022-12-04T00:32:35.395Z,100242.59
2022-12-04T00:35:02.271Z,100239.16
2022-12-04T00:37:28.944Z,100246.03
2022-12-04T00:39:55.851Z,100233.22
2022-12-04T00:42:22.760Z,100238.38
2022-12-04T00:44:49.583Z,100236.69
2022-12-04T00:47:16.352Z,100242.69
2022-12-04T00:49:43.105Z,100239.28
2022-12-04T00:52:09.824Z,100237.56
2022-12-04T00:54:36.544Z,100227.38
2022-12-04T00:57:03.342Z,100220.50
2022-12-04T00:59:30.144Z,100228.16
2022-12-04T01:01:56.832Z,100231.59
2022-12-04T01:04:23.566Z,100225.69
2022-12-04T01:06:50.278Z,100223.06
2022-12-04T01:09:17.117Z,100223.97
2022-12-04T01:11:43.837Z,100235.84
2022-12-04T01:14:10.557Z,100228.22
2022-12-04T01:16:39.456Z,100234.16
2022-12-04T01:19:08.911Z,100232.41
2022-12-04T01:21:36.751Z,100238.41
2022-12-04T01:24:04.639Z,100239.28
2022-12-04T01:26:31.909Z,100247.03
2022-12-04T01:28:59.269Z,100258.06
2022-12-04T01:31:26.273Z,100256.38
2022-12-04T01:33:53.313Z,100258.09
2022-12-04T01:36:23.293Z,100259.78
2022-12-04T01:38:50.702Z,100252.13
2022-12-04T01:41:23.993Z,100242.75
2022-12-04T01:44:22.958Z,100247.00
2022-12-04T01:46:53.902Z,100251.28
2022-12-04T01:49:43.464Z,100244.44
2022-12-04T01:52:22.102Z,100251.28
2022-12-04T01:55:00.827Z,100252.13
2022-12-04T01:57:32.119Z,100243.63
2022-12-04T02:00:11.315Z,100248.75
2022-12-04T02:02:47.679Z,100246.19
2022-12-04T02:05:17.905Z,100245.28
2022-12-04T02:07:47.255Z,100247.84
2022-12-04T02:10:14.847Z,100236.00
2022-12-04T02:12:56.284Z,100237.66
2022-12-04T02:15:36.666Z,100238.53
2022-12-04T02:18:31.204Z,100236.75
2022-12-04T02:21:06.355Z,100223.19
2022-12-04T02:24:00.504Z,100241.97
2022-12-04T02:26:51.348Z,100243.59
2022-12-04T02:29:18.074Z,100244.44
2022-12-04T02:31:55.428Z,100240.19
2022-12-04T02:34:28.119Z,100242.72
2022-12-04T02:37:03.951Z,100241.03
2022-12-04T02:39:44.508Z,100236.72
2022-12-04T02:42:19.471Z,100226.59
2022-12-04T02:45:08.483Z,100231.66
2022-12-04T02:47:38.103Z,100235.06
2022-12-04T02:50:10.271Z,100236.81
2022-12-04T02:52:42.743Z,100231.72
2022-12-04T02:55:19.102Z,100215.56
2022-12-04T02:57:51.031Z,100220.69
2022-12-04T03:00:19.063Z,100213.88
2022-12-04T03:02:56.592Z,100214.69
2022-12-04T03:05:34.914Z,100214.69
2022-12-04T03:08:08.675Z,100218.06
2022-12-04T03:10:42.113Z,100217.22
2022-12-04T03:13:29.232Z,100224.03
2022-12-04T03:16:07.073Z,100223.16
2022-12-04T03:18:40.722Z,100226.53
2022-12-04T03:21:15.352Z,100220.63
2022-12-04T03:24:05.342Z,100219.75
2022-12-04T03:26:45.269Z,100217.16
2022-12-04T03:29:33.750Z,100194.22
2022-12-04T03:32:24.391Z,100212.09
2022-12-04T03:34:58.470Z,100205.34
2022-12-04T03:38:00.033Z,100205.25
2022-12-04T03:40:34.323Z,100208.63
2022-12-04T03:43:12.590Z,100208.63
2022-12-04T03:45:52.784Z,100204.41
2022-12-04T03:48:26.501Z,100201.00
2022-12-04T03:51:06.749Z,100197.47
2022-12-04T03:53:37.024Z,100198.41
2022-12-04T03:56:14.043Z,100199.25
2022-12-04T03:58:47.344Z,100195.88
2022-12-04T04:01:19.037Z,100186.56
2022-12-04T04:03:50.967Z,100185.66
2022-12-04T04:06:32.779Z,100188.97
2022-12-04T04:09:05.606Z,100184.78
2022-12-04T04:11:38.446Z,100184.75
2022-12-04T04:14:33.175Z,100183.91
2022-12-04T04:17:23.833Z,100176.19
2022-12-04T04:20:16.830Z,100173.78
2022-12-04T04:23:03.829Z,100171.16
2022-12-04T04:25:31.470Z,100157.63
2022-12-04T04:27:58.941Z,100171.22
2022-12-04T04:30:29.630Z,100177.97
2022-12-04T04:33:16.342Z,100185.66
2022-12-04T04:36:11.062Z,100149.22
2022-12-04T04:38:46.024Z,100185.63
2022-12-04T04:41:39.563Z,100183.06
2022-12-04T04:44:18.110Z,100186.44
2022-12-04T04:46:58.545Z,100187.31
2022-12-04T04:49:30.383Z,100191.56
2022-12-04T04:51:58.463Z,100181.41
2022-12-04T04:54:27.469Z,100194.94
2022-12-04T04:56:54.204Z,100195.78
2022-12-04T04:59:20.991Z,100199.22
2022-12-04T05:01:48.562Z,100196.72
2022-12-04T05:04:15.409Z,100203.44
2022-12-04T05:06:42.153Z,100199.16
2022-12-04T05:09:08.884Z,100201.75
2022-12-04T05:11:35.668Z,100193.25
2022-12-04T05:14:02.432Z,100189.84
2022-12-04T05:16:29.257Z,100198.28
2022-12-04T05:19:14.443Z,100200.91
2022-12-04T05:21:41.750Z,100199.19
2022-12-04T05:24:09.542Z,100186.56
2022-12-04T05:26:36.669Z,100192.41
2022-12-04T05:29:03.474Z,100193.25
2022-12-04T05:31:30.273Z,100196.69
2022-12-04T05:33:57.386Z,100194.06
2022-12-04T05:36:24.224Z,100196.59
2022-12-04T05:38:50.994Z,100197.50
2022-12-04T05:41:17.712Z,100204.28
2022-12-04T05:43:44.504Z,100200.84
2022-12-04T05:46:11.254Z,100214.44
2022-12-04T05:56:01.609Z,100210.16
2022-12-04T05:58:28.808Z,100206.84
2022-12-04T06:00:55.967Z,100211.94
2022-12-04T06:03:23.098Z,100212.75
2022-12-04T06:05:49.929Z,100207.69
2022-12-04T06:08:16.893Z,100200.06
2022-12-04T06:10:43.632Z,100207.63
2022-12-04T06:13:11.405Z,100197.47
2022-12-04T06:15:39.687Z,100205.19
2022-12-04T06:18:06.551Z,100194.03
2022-12-04T06:20:34.293Z,100194.75
2022-12-04T06:23:01.361Z,100198.19
2022-12-04T06:25:28.114Z,100187.25
2022-12-04T06:27:54.864Z,100198.25
2022-12-04T06:30:21.593Z,100194.00
2022-12-04T06:32:48.278Z,100199.06
2022-12-04T06:35:15.033Z,100199.91
2022-12-04T06:37:41.784Z,100211.78
2022-12-04T06:40:09.030Z,100181.34
2022-12-04T06:42:35.790Z,100203.38
2022-12-04T06:45:02.585Z,100202.47
2022-12-04T06:47:29.304Z,100157.56
2022-12-04T06:49:56.307Z,100194.00
2022-12-04T06:52:23.195Z,100204.25
2022-12-04T06:54:49.906Z,100204.19
2022-12-04T06:57:16.636Z,100199.06
2022-12-04T06:59:43.431Z,100203.38
2022-12-04T07:02:10.937Z,100206.75
2022-12-04T07:04:37.769Z,100209.22
2022-12-04T07:07:04.567Z,100209.22
2022-12-04T07:09:31.272Z,100202.50
2022-12-04T07:11:58.032Z,100211.06
2022-12-04T07:14:24.747Z,100206.75
2022-12-04T07:16:51.631Z,100204.19
2022-12-04T07:19:18.365Z,100198.22
2022-12-04T07:21:45.115Z,100198.22
2022-12-04T07:24:17.082Z,100207.56
2022-12-04T07:26:44.556Z,100196.56
2022-12-04T07:29:11.190Z,100209.25
2022-12-04T07:31:38.429Z,100207.47
2022-12-04T07:34:05.311Z,100214.34
2022-12-04T07:36:31.985Z,100210.13
2022-12-04T07:38:58.786Z,100219.38
2022-12-04T07:41:25.543Z,100216.91
2022-12-04T07:43:52.278Z,100219.44
2022-12-04T07:46:21.674Z,100212.59
2022-12-04T07:48:48.464Z,100200.72
2022-12-04T07:51:18.312Z,100206.50
2022-12-04T07:53:45.626Z,100204.91
2022-12-04T07:56:13.305Z,100208.31
2022-12-04T07:58:41.033Z,100206.66
2022-12-04T08:01:20.420Z,100207.44
2022-12-04T08:03:49.172Z,100204.81
2022-12-04T08:06:18.200Z,100208.28
2022-12-04T08:08:45.114Z,100209.19
2022-12-04T08:11:15.284Z,100206.56
2022-12-04T08:13:42.278Z,100211.66
2022-12-04T08:16:10.687Z,100207.34
2022-12-04T08:18:38.399Z,100197.97
2022-12-04T08:21:06.835Z,100203.06
2022-12-04T08:23:34.755Z,100191.19
2022-12-04T08:26:01.844Z,100197.06
2022-12-04T08:28:29.796Z,100202.19
2022-12-04T08:31:12.832Z,100204.78
2022-12-04T08:33:39.944Z,100212.41
2022-12-04T08:36:11.753Z,100216.59
2022-12-04T08:38:38.786Z,100196.19
2022-12-04T08:41:07.792Z,100197.03
2022-12-04T08:43:34.911Z,100199.66
2022-12-04T08:46:05.509Z,100146.31
2022-12-04T08:48:33.107Z,100198.78
2022-12-04T08:51:00.905Z,100198.81
2022-12-04T08:53:27.783Z,100202.13
2022-12-04T08:55:54.539Z,100174.19
2022-12-04T08:58:21.433Z,100212.28
2022-12-04T09:00:48.392Z,100199.50
2022-12-04T09:03:17.478Z,100194.31
2022-12-04T09:05:48.046Z,100209.66
2022-12-04T09:08:16.311Z,100209.78
2022-12-04T09:10:44.094Z,100198.72
2022-12-04T09:13:11.047Z,100199.53
2022-12-04T09:15:41.477Z,100187.66
2022-12-04T09:18:09.357Z,100206.31
2022-12-04T09:20:36.804Z,100202.13
2022-12-04T09:23:05.587Z,100152.13
2022-12-04T09:25:36.467Z,100205.56
2022-12-04T09:28:03.991Z,100219.97
2022-12-04T09:30:30.714Z,100197.03
2022-12-04T09:32:57.471Z,100218.13
2022-12-04T09:35:24.237Z,100215.59
2022-12-04T09:37:50.977Z,100224.19
2022-12-04T09:40:35.262Z,100219.06
2022-12-04T09:43:33.913Z,100225.03
2022-12-04T09:46:09.621Z,100223.34
2022-12-04T09:48:40.069Z,100231.84
2022-12-04T09:51:18.470Z,100224.13
2022-12-04T09:53:56.623Z,100221.56
2022-12-04T09:56:29.433Z,100216.50
2022-12-04T09:59:11.342Z,100210.47
2022-12-04T10:01:48.834Z,100212.97
2022-12-04T10:04:17.392Z,100207.06
2022-12-04T10:06:59.425Z,100192.72
2022-12-04T10:09:52.402Z,100192.44
2022-12-04T10:12:37.347Z,100184.78
2022-12-04T10:15:09.146Z,100189.06
2022-12-04T10:18:07.046Z,100181.47
2022-12-04T10:21:06.913Z,100173.78
2022-12-04T10:23:55.390Z,100169.38
2022-12-04T10:26:28.473Z,100155.78
2022-12-04T10:29:03.638Z,100158.44
2022-12-04T10:31:33.382Z,100158.50
2022-12-04T10:34:13.713Z,100150.63
2022-12-04T10:36:44.965Z,100129.53
2022-12-04T10:39:22.192Z,100153.22
2022-12-04T10:41:51.913Z,100153.97
2022-12-04T10:44:20.355Z,100154.91
2022-12-04T10:46:47.659Z,100153.22
2022-12-04T10:49:19.870Z,100155.78
2022-12-04T10:51:47.550Z,100139.66
2022-12-04T10:54:22.190Z,100147.09
2022-12-04T10:56:52.546Z,100135.25
2022-12-04T10:59:19.350Z,100137.84
2022-12-04T11:01:46.539Z,100140.25
2022-12-04T11:04:26.872Z,100129.31
2022-12-04T11:07:19.505Z,100125.13
2022-12-04T11:09:59.125Z,100134.34
2022-12-04T11:12:26.197Z,100130.88
2022-12-04T11:15:08.068Z,100135.91
2022-12-04T11:17:34.789Z,100135.13
2022-12-04T11:20:05.488Z,100141.94
2022-12-04T11:22:33.711Z,100140.19
2022-12-04T11:25:00.591Z,100141.88
2022-12-04T11:27:33.565Z,100150.34
2022-12-04T11:30:10.853Z,100135.28
2022-12-04T11:32:38.851Z,100140.25
2022-12-04T11:35:27.398Z,100132.69
2022-12-04T11:38:06.683Z,100150.47
2022-12-04T11:40:34.767Z,100149.59
2022-12-04T11:43:06.235Z,100152.09
2022-12-04T11:45:33.842Z,100147.09
2022-12-04T11:48:03.952Z,100143.69
2022-12-04T11:50:52.118Z,100168.50
2022-12-04T11:53:32.063Z,100165.31
2022-12-04T11:56:10.752Z,100160.94
2022-12-04T11:58:47.184Z,100163.38
2022-12-04T12:01:19.470Z,100171.81
2022-12-04T12:04:13.871Z,100158.09
2022-12-04T12:06:55.155Z,100148.06
2022-12-04T12:09:47.912Z,100158.94
2022-12-04T12:12:27.580Z,100149.50
2022-12-04T12:15:12.612Z,100149.66
2022-12-04T12:17:50.428Z,100151.38
2022-12-04T12:20:35.671Z,100143.72
2022-12-04T12:23:07.352Z,100137.81
2022-12-04T12:25:56.392Z,100112.38
2022-12-04T12:28:53.886Z,100154.91
2022-12-04T12:31:41.001Z,100144.47
2022-12-04T12:34:10.630Z,100148.13
2022-12-04T12:36:47.468Z,100134.44
2022-12-04T12:39:25.077Z,100150.78
2022-12-04T12:41:59.703Z,100143.91
2022-12-04T12:44:44.355Z,100143.91
2022-12-04T12:47:19.791Z,100140.81
2022-12-04T12:49:55.795Z,100138.22
2022-12-04T12:52:36.117Z,100136.25
2022-12-04T12:55:23.118Z,100092.94
2022-12-04T12:58:04.756Z,100127.56
2022-12-04T13:00:36.951Z,100126.88
2022-12-04T13:03:37.310Z,100106.56
2022-12-04T13:06:09.599Z,100102.94
2022-12-04T13:08:49.233Z,100104.69
2022-12-04T13:11:22.671Z,100094.44
2022-12-04T13:13:55.671Z,100096.25
2022-12-04T13:16:36.312Z,100085.97
2022-12-04T13:19:24.314Z,100083.22
2022-12-04T13:22:24.188Z,100078.38
2022-12-04T13:25:23.318Z,100061.94
2022-12-04T13:28:15.808Z,100069.56
2022-12-04T13:31:26.145Z,100059.34
2022-12-04T13:34:22.045Z,100063.75
2022-12-04T13:37:27.206Z,100078.97
2022-12-04T13:40:16.197Z,100090.16
2022-12-04T13:42:43.196Z,100079.00
2022-12-04T13:45:28.733Z,100091.78
2022-12-04T13:48:00.688Z,100045.31
2022-12-04T13:50:40.047Z,100061.38
2022-12-04T13:53:26.990Z,100084.16
2022-12-04T13:55:57.230Z,100067.09
2022-12-04T13:58:31.346Z,100053.53
2022-12-04T14:01:02.930Z,100060.25
2022-12-04T14:03:49.030Z,100077.38
2022-12-04T14:06:26.151Z,100064.63
2022-12-04T14:09:03.025Z,100072.13
2022-12-04T14:11:42.505Z,100067.88
2022-12-04T14:14:24.968Z,100069.63
2022-12-04T14:16:52.814Z,100056.88
2022-12-04T14:19:53.390Z,100034.13
2022-12-04T14:22:43.987Z,100078.44
2022-12-04T14:25:13.708Z,100103.16
2022-12-04T14:27:52.545Z,100034.56
2022-12-04T14:30:21.025Z,100104.94
2022-12-04T14:32:54.865Z,100100.56
2022-12-04T14:35:24.913Z,100110.81
2022-12-04T14:38:01.986Z,100118.72
2022-12-04T14:40:44.565Z,100107.53
2022-12-04T14:43:21.352Z,100112.72
2022-12-04T14:46:00.270Z,100128.00
2022-12-04T14:48:42.916Z,100111.91
2022-12-04T14:51:30.595Z,100122.09
2022-12-04T14:54:09.432Z,100116.00
2022-12-04T14:57:12.153Z,100110.78
2022-12-04T14:59:52.073Z,100106.41
2022-12-04T15:02:28.709Z,100104.69
2022-12-04T15:04:56.709Z,100109.00
2022-12-04T15:07:31.182Z,100108.06
2022-12-04T15:10:19.025Z,100097.03
2022-12-04T15:12:52.025Z,100092.81
2022-12-04T15:15:32.288Z,100089.47
2022-12-04T15:18:13.805Z,100088.63
2022-12-04T15:20:49.788Z,100089.25
2022-12-04T15:23:35.622Z,100078.19
2022-12-04T15:26:16.390Z,100066.41
2022-12-04T15:28:49.912Z,100086.69
2022-12-04T15:31:25.749Z,100081.63
2022-12-04T15:33:56.782Z,100081.72
2022-12-04T15:36:42.594Z,100086.91
2022-12-04T15:39:16.427Z,100087.81
2022-12-04T15:41:43.233Z,100085.19
2022-12-04T15:44:30.032Z,100082.63
2022-12-04T15:47:01.366Z,100091.09
2022-12-04T15:49:31.075Z,100091.09
2022-12-04T15:52:14.549Z,100069.19
2022-12-04T15:54:48.355Z,100107.38
2022-12-04T15:57:29.357Z,100097.25
2022-12-04T16:00:01.280Z,100093.72
2022-12-04T16:02:43.032Z,100076.81
2022-12-04T16:05:21.873Z,100086.81
2022-12-04T16:07:58.205Z,100090.28
2022-12-04T16:10:34.234Z,100074.97
2022-12-04T16:13:04.063Z,100079.34
2022-12-04T16:15:41.661Z,100085.38
2022-12-04T16:18:13.432Z,100099.00
2022-12-04T16:20:41.391Z,100111.78
2022-12-04T16:23:08.234Z,100114.41
2022-12-04T16:25:34.954Z,100110.97
2022-12-04T16:28:02.104Z,100114.34
2022-12-04T16:30:32.956Z,100121.22
2022-12-04T16:32:59.790Z,100123.75
2022-12-04T16:35:26.584Z,100100.94
2022-12-04T16:37:53.423Z,100114.41
2022-12-04T16:40:20.183Z,100123.78
2022-12-04T16:42:48.305Z,100114.38
2022-12-04T16:45:31.510Z,100111.78
2022-12-04T16:47:58.608Z,100113.41
2022-12-04T16:50:27.145Z,100110.81
2022-12-04T16:52:54.703Z,100100.59
2022-12-04T16:55:39.951Z,100092.16
2022-12-04T16:58:08.187Z,100095.41
2022-12-04T17:00:36.556Z,100092.16
2022-12-04T17:03:04.555Z,100086.09
2022-12-04T17:05:35.833Z,100086.88
2022-12-04T17:08:02.673Z,100075.91
2022-12-04T17:10:30.232Z,100092.16
2022-12-04T17:12:57.842Z,100091.22
2022-12-04T17:15:24.806Z,100087.00
2022-12-04T17:17:51.984Z,100083.53
2022-12-04T17:20:20.512Z,100083.53
2022-12-04T17:22:48.112Z,100072.44
2022-12-04T17:25:16.511Z,100075.88
2022-12-04T17:27:43.745Z,100067.34
2022-12-04T17:30:12.145Z,100073.50
2022-12-04T17:32:39.063Z,100067.44
2022-12-04T17:35:07.106Z,100074.94
2022-12-04T17:37:34.876Z,100069.16
2022-12-04T17:40:01.913Z,100070.66
2022-12-04T17:42:28.666Z,100065.63
2022-12-04T17:44:55.707Z,100069.84
2022-12-04T17:47:22.746Z,100071.44
2022-12-04T17:49:49.543Z,100080.09
2022-12-04T17:52:16.408Z,100079.22
2022-12-04T17:54:43.167Z,100075.78
2022-12-04T17:57:09.847Z,100078.44
2022-12-04T17:59:36.675Z,100069.16
2022-12-04T18:02:03.432Z,100077.66
2022-12-04T18:04:30.313Z,100079.38
2022-12-04T18:06:57.074Z,100085.31
2022-12-04T18:09:23.831Z,100092.94
2022-12-04T18:11:50.553Z,100104.94
2022-12-04T18:14:22.264Z,100102.44
2022-12-04T18:16:53.325Z,100115.13
2022-12-04T18:19:22.275Z,100126.13
2022-12-04T18:21:49.681Z,100110.88
2022-12-04T18:24:17.071Z,100117.72
2022-12-04T18:26:48.184Z,100118.53
2022-12-04T18:29:20.706Z,100119.31
2022-12-04T18:31:48.124Z,100120.97
2022-12-04T18:34:15.471Z,100117.53
2022-12-04T18:36:45.361Z,100112.41
2022-12-04T18:39:16.834Z,100115.88
2022-12-04T18:41:44.480Z,100117.56
2022-12-04T18:44:11.585Z,100119.28
2022-12-04T18:46:38.499Z,100117.41
2022-12-04T18:49:05.865Z,100112.34
2022-12-04T18:51:39.570Z,100118.41
2022-12-04T18:54:21.829Z,100114.91
2022-12-04T18:56:48.608Z,100116.66
2022-12-04T18:59:18.527Z,100114.03
2022-12-04T19:01:45.592Z,100118.25
2022-12-04T19:04:13.994Z,100116.59
2022-12-04T19:06:43.038Z,100118.34
2022-12-04T19:09:12.851Z,100112.41
2022-12-04T19:11:40.753Z,100113.34
2022-12-04T19:14:16.107Z,100121.78
2022-12-04T19:16:43.897Z,100120.06
2022-12-04T19:19:15.653Z,100132.03
2022-12-04T19:21:42.449Z,100132.91
2022-12-04T19:24:10.665Z,100134.56
2022-12-04T19:26:38.428Z,100142.22
2022-12-04T19:29:06.154Z,100140.53
2022-12-04T19:31:35.731Z,100147.44
2022-12-04T19:34:02.993Z,100150.91
2022-12-04T19:36:31.467Z,100144.88
2022-12-04T19:38:59.027Z,100149.97
2022-12-04T19:41:30.229Z,100161.03
2022-12-04T19:43:59.387Z,100164.44
2022-12-04T19:46:28.711Z,100168.63
2022-12-04T19:48:58.786Z,100159.09
2022-12-04T19:51:26.096Z,100158.44
2022-12-04T19:53:54.833Z,100161.84
2022-12-04T19:56:24.847Z,100166.84
2022-12-04T19:58:53.332Z,100166.94
2022-12-04T20:01:25.170Z,100173.78
2022-12-04T20:03:52.191Z,100134.81
2022-12-04T20:06:21.316Z,100175.38
2022-12-04T20:08:53.113Z,100172.91
2022-12-04T20:11:20.552Z,100179.75
2022-12-04T20:13:49.312Z,100178.06
2022-12-04T20:16:18.512Z,100188.38
2022-12-04T20:18:46.188Z,100179.91
2022-12-04T20:21:13.915Z,100184.09
2022-12-04T20:23:43.034Z,100179.06
2022-12-04T20:26:13.391Z,100188.34
2022-12-04T20:28:41.271Z,100183.25
2022-12-04T20:31:26.526Z,100187.50
2022-12-04T20:33:55.424Z,100190.09
2022-12-04T20:36:24.600Z,100194.31
2022-12-04T20:38:58.150Z,100190.97
2022-12-04T20:41:26.905Z,100191.81
2022-12-04T20:43:53.759Z,100192.63
2022-12-04T20:46:31.766Z,100187.50
2022-12-04T20:49:00.709Z,100185.91
2022-12-04T20:51:37.359Z,100185.06
2022-12-04T20:54:05.127Z,100191.94
2022-12-04T20:56:35.348Z,100187.66
2022-12-04T20:59:05.079Z,100186.91
2022-12-04T21:01:33.440Z,100189.41
2022-12-04T21:04:01.689Z,100185.97
2022-12-04T21:06:36.279Z,100192.78
2022-12-04T21:09:08.999Z,100191.97
2022-12-04T21:11:48.038Z,100190.22
2022-12-04T21:14:45.886Z,100193.69
2022-12-04T21:17:19.025Z,100194.63
2022-12-04T21:19:47.751Z,100180.97
2022-12-04T21:22:14.647Z,100189.47
2022-12-04T21:24:42.337Z,100189.41
2022-12-04T21:27:13.297Z,100191.16
2022-12-04T21:29:43.848Z,100181.84
2022-12-04T21:32:10.788Z,100189.47
2022-12-04T21:34:37.590Z,100188.63
2022-12-04T21:37:04.427Z,100186.97
2022-12-04T21:39:31.187Z,100186.09
2022-12-04T21:42:16.625Z,100201.38
2022-12-04T21:44:43.623Z,100201.44
2022-12-04T21:47:10.451Z,100188.59
2022-12-04T21:49:37.187Z,100209.13
2022-12-04T21:52:03.903Z,100196.34
2022-12-04T21:54:30.834Z,100203.91
2022-12-04T21:56:58.385Z,100212.47
2022-12-04T21:59:26.148Z,100208.16
2022-12-04T22:01:53.662Z,100210.72
2022-12-04T22:04:21.121Z,100216.63
2022-12-04T22:06:47.853Z,100220.88
2022-12-04T22:09:14.710Z,100220.91
2022-12-04T22:11:42.914Z,100215.00
2022-12-04T22:14:11.438Z,100218.44
2022-12-04T22:16:41.836Z,100219.31
2022-12-04T22:19:13.079Z,100220.94
2022-12-04T22:21:40.229Z,100228.66
2022-12-04T22:24:07.567Z,100234.59
2022-12-04T22:26:34.525Z,100224.38
2022-12-04T22:29:03.166Z,100237.13
2022-12-04T22:31:32.319Z,100238.00
2022-12-04T22:34:00.677Z,100254.16
2022-12-04T22:36:32.383Z,100254.16
2022-12-04T22:39:09.342Z,100254.16
2022-12-04T22:41:37.636Z,100254.13
2022-12-04T22:44:05.273Z,100255.78
2022-12-04T22:46:32.940Z,100246.41
2022-12-04T22:49:00.144Z,100248.13
2022-12-04T22:51:27.791Z,100248.13
2022-12-04T22:53:57.435Z,100252.41
2022-12-04T22:56:28.423Z,100251.59
2022-12-04T22:58:56.464Z,100247.31
2022-12-04T23:01:25.784Z,100249.78
2022-12-04T23:03:53.844Z,100256.69
2022-12-04T23:06:22.473Z,100256.69
2022-12-04T23:08:49.312Z,100254.13
2022-12-04T23:11:20.794Z,100260.03
2022-12-04T23:13:52.108Z,100263.47
2022-12-04T23:16:20.876Z,100249.94
2022-12-04T23:18:48.490Z,100250.66
2022-12-04T23:21:16.435Z,100247.28
2022-12-04T23:23:45.031Z,100249.00
2022-12-04T23:26:14.832Z,100253.22
2022-12-04T23:28:41.591Z,100254.09
2022-12-04T23:31:08.505Z,100258.41
2022-12-04T23:33:35.431Z,100258.31
2022-12-04T23:36:03.706Z,100272.81
2022-12-04T23:38:31.145Z,100270.22
2022-12-04T23:41:22.586Z,100276.22
2022-12-04T23:43:50.423Z,100286.47
2022-12-04T23:46:19.920Z,100286.47
2022-12-04T23:48:47.753Z,100295.00
2022-12-04T23:51:17.345Z,100292.34
2022-12-04T23:53:45.184Z,100290.78
2022-12-04T23:56:17.625Z,100292.47
2022-12-04T23:58:45.945Z,100297.56
